createdAt,value
2022-12-13T00:02:03.777Z,80.60
2022-12-13T00:07:06.224Z,91.70
2022-12-13T00:12:08.695Z,82.80
2022-12-13T00:17:11.079Z,79.20
2022-12-13T00:22:14.098Z,90.70
2022-12-13T00:27:16.703Z,92.10
2022-12-13T00:32:19.193Z,84.00
2022-12-13T00:37:21.676Z,84.90
2022-12-13T00:42:24.209Z,94.10
2022-12-13T00:47:26.652Z,98.50
2022-12-13T00:52:29.135Z,99.60
2022-12-13T00:57:31.701Z,76.10
2022-12-13T01:02:34.085Z,93.80
2022-12-13T01:07:37.726Z,92.30
2022-12-13T01:12:40.172Z,92.70
2022-12-13T01:17:42.671Z,97.70
2022-12-13T01:22:45.103Z,96.10
2022-12-13T01:27:47.549Z,95.80
2022-12-13T01:32:49.941Z,91.30
2022-12-13T01:37:52.264Z,93.50
2022-12-13T01:43:00.742Z,88.00
2022-12-13T01:48:06.269Z,82.70
2022-12-13T01:53:14.182Z,93.00
2022-12-13T01:58:17.398Z,94.10
2022-12-13T02:03:22.607Z,83.20
2022-12-13T02:08:26.009Z,85.50
2022-12-13T02:13:28.440Z,83.00
2022-12-13T02:18:30.762Z,99.80
2022-12-13T02:23:39.053Z,95.90
2022-12-13T02:29:02.478Z,97.30
2022-12-13T02:34:23.987Z,98.50
2022-12-13T02:39:36.271Z,74.60
2022-12-13T02:44:44.031Z,98.90
2022-12-13T02:49:51.410Z,95.10
2022-12-13T02:54:55.839Z,93.80
2022-12-13T03:00:01.918Z,97.90
2022-12-13T03:06:00.631Z,97.80
2022-12-13T03:11:12.466Z,99.70
2022-12-13T03:16:39.433Z,93.90
2022-12-13T03:21:48.659Z,88.20
2022-12-13T03:26:52.226Z,99.90
2022-12-13T03:31:57.494Z,99.90
2022-12-13T03:37:00.021Z,94.00
2022-12-13T03:42:03.486Z,95.60
2022-12-13T03:47:05.990Z,93.70
2022-12-13T03:52:08.281Z,99.90
2022-12-13T03:57:10.670Z,90.50
2022-12-13T04:02:13.112Z,94.70
2022-12-13T04:07:21.842Z,99.90
2022-12-13T04:12:48.187Z,93.40
2022-12-13T04:17:51.359Z,98.60
2022-12-13T04:22:53.849Z,99.30
2022-12-13T04:27:56.177Z,84.90
2022-12-13T04:32:58.790Z,90.30
2022-12-13T04:38:01.680Z,95.00
2022-12-13T04:43:04.165Z,93.00
2022-12-13T04:48:07.766Z,94.60
2022-12-13T04:53:16.119Z,99.90
2022-12-13T04:58:23.004Z,97.40
2022-12-13T05:03:25.732Z,99.90
2022-12-13T05:08:28.224Z,99.70
2022-12-13T05:13:30.666Z,98.80
2022-12-13T05:18:34.384Z,92.80
2022-12-13T05:23:37.080Z,92.60
2022-12-13T05:28:39.515Z,94.40
2022-12-13T05:33:42.167Z,94.10
2022-12-13T05:38:44.964Z,99.90
2022-12-13T05:43:47.361Z,99.90
2022-12-13T05:48:49.850Z,99.60
2022-12-13T05:53:53.516Z,94.70
2022-12-13T05:58:56.253Z,93.30
2022-12-13T06:03:58.724Z,97.70
2022-12-13T06:09:01.472Z,94.60
2022-12-13T06:14:04.003Z,87.10
2022-12-13T06:19:25.394Z,91.90
2022-12-13T06:24:27.898Z,93.50
2022-12-13T06:29:30.352Z,99.60
2022-12-13T06:34:35.822Z,95.70
2022-12-13T06:39:38.823Z,91.60
2022-12-13T06:44:59.121Z,98.70
2022-12-13T06:50:05.530Z,94.70
2022-12-13T06:55:08.822Z,96.40
2022-12-13T07:00:11.731Z,90.40
2022-12-13T07:05:14.214Z,94.00
2022-12-13T07:10:22.539Z,76.60
2022-12-13T07:15:25.230Z,88.70
2022-12-13T07:20:27.807Z,90.40
2022-12-13T07:25:30.314Z,95.50
2022-12-13T07:30:40.911Z,90.60
2022-12-13T07:35:44.245Z,89.80
2022-12-13T07:40:46.663Z,96.70
2022-12-13T07:45:49.071Z,48.80
2022-12-13T07:50:54.724Z,95.00
2022-12-13T07:55:57.431Z,74.60
2022-12-13T08:01:01.991Z,68.50
2022-12-13T08:06:11.335Z,42.30
2022-12-13T08:11:17.568Z,42.30
2022-12-13T08:16:28.262Z,43.70
2022-12-13T08:21:55.151Z,44.90
2022-12-13T08:27:02.297Z,47.30
2022-12-13T08:32:07.841Z,48.80
2022-12-13T08:37:10.217Z,49.30
2022-12-13T08:42:19.247Z,54.70
2022-12-13T08:47:26.327Z,56.10
2022-12-13T08:52:29.567Z,49.10
2022-12-13T08:57:32.264Z,61.90
2022-12-13T09:02:38.786Z,59.20
2022-12-13T09:07:43.006Z,91.00
2022-12-13T09:12:48.455Z,89.10
2022-12-13T09:17:52.484Z,73.00
2022-12-13T09:23:01.307Z,86.40
2022-12-13T09:28:07.591Z,73.00
2022-12-13T09:33:28.204Z,75.60
2022-12-13T09:38:35.848Z,77.80
2022-12-13T09:43:42.624Z,90.60
2022-12-13T09:48:48.332Z,86.50
2022-12-13T09:53:52.864Z,95.20
2022-12-13T09:58:59.961Z,93.80
2022-12-13T10:04:02.409Z,92.50
2022-12-13T10:09:08.563Z,86.50
2022-12-13T10:14:16.166Z,92.20
2022-12-13T10:19:30.082Z,80.30
2022-12-13T10:25:05.133Z,96.20
2022-12-13T10:30:15.734Z,95.00
2022-12-13T10:35:36.449Z,91.50
2022-12-13T10:40:49.339Z,90.00
2022-12-13T10:46:02.813Z,76.30
2022-12-13T10:51:17.156Z,93.90
2022-12-13T10:56:23.818Z,96.20
2022-12-13T11:01:30.426Z,99.60
2022-12-13T11:06:47.135Z,74.60
2022-12-13T11:11:58.332Z,94.30
2022-12-13T11:17:09.170Z,95.20
2022-12-13T11:22:35.030Z,94.00
2022-12-13T11:27:48.527Z,98.80
2022-12-13T11:33:09.445Z,92.70
2022-12-13T11:38:31.276Z,58.10
2022-12-13T11:43:38.597Z,80.10
2022-12-13T11:48:51.094Z,99.40
2022-12-13T11:54:09.079Z,90.50
2022-12-13T11:59:32.143Z,99.90
2022-12-13T12:04:58.080Z,99.90
2022-12-13T12:10:14.030Z,84.70
2022-12-13T12:15:28.335Z,99.90
2022-12-13T12:21:16.906Z,99.90
2022-12-13T12:26:26.258Z,93.80
2022-12-13T12:31:51.275Z,99.90
2022-12-13T12:37:17.847Z,90.90
2022-12-13T12:43:14.497Z,99.90
2022-12-13T12:48:55.120Z,99.90
2022-12-13T12:54:33.475Z,97.00
2022-12-13T13:00:09.483Z,99.90
2022-12-13T13:05:20.319Z,99.90
2022-12-13T13:10:27.281Z,96.40
2022-12-13T13:15:32.786Z,99.90
2022-12-13T13:20:35.796Z,96.50
2022-12-13T13:26:00.239Z,99.90
2022-12-13T13:31:11.157Z,99.90
2022-12-13T13:36:39.562Z,84.90
2022-12-13T13:41:54.099Z,61.80
2022-12-13T13:47:17.125Z,60.50
2022-12-13T13:52:26.445Z,47.30
2022-12-13T13:58:08.985Z,50.60
2022-12-13T14:09:27.008Z,58.30
2022-12-13T14:15:22.936Z,58.50
2022-12-13T14:20:58.036Z,62.60
2022-12-13T14:26:28.969Z,75.30
2022-12-13T14:36:47.999Z,69.30
2022-12-13T14:41:57.552Z,95.80
2022-12-13T14:47:06.208Z,66.30
2022-12-13T14:52:30.235Z,63.40
2022-12-13T14:57:34.880Z,59.50
2022-12-13T15:02:37.392Z,58.70
2022-12-13T15:07:41.802Z,55.20
2022-12-13T15:12:45.522Z,55.40
2022-12-13T15:17:48.138Z,48.90
2022-12-13T15:23:04.354Z,50.90
2022-12-13T15:28:21.246Z,53.70
2022-12-13T15:33:33.390Z,67.70
2022-12-13T15:38:41.343Z,57.70
2022-12-13T15:43:50.302Z,66.30
2022-12-13T15:48:53.766Z,70.60
2022-12-13T15:54:05.455Z,59.70
2022-12-13T15:59:29.299Z,70.20
2022-12-13T16:04:33.084Z,72.20
2022-12-13T16:09:39.469Z,79.60
2022-12-13T16:14:49.238Z,80.40
2022-12-13T16:20:02.120Z,86.70
2022-12-13T16:25:19.383Z,99.90
2022-12-13T16:30:28.430Z,93.60
2022-12-13T16:35:30.767Z,70.20
2022-12-13T16:40:33.447Z,54.10
2022-12-13T16:45:44.671Z,71.30
2022-12-13T16:50:57.731Z,73.20
2022-12-13T16:56:00.623Z,83.50
2022-12-13T17:01:09.395Z,82.40
2022-12-13T17:06:16.198Z,92.40
2022-12-13T17:11:18.773Z,91.30
2022-12-13T17:16:21.367Z,92.50
2022-12-13T17:21:25.897Z,92.50
2022-12-13T17:26:29.246Z,93.10
2022-12-13T17:31:35.800Z,90.50
2022-12-13T17:36:38.853Z,90.90
2022-12-13T17:41:41.935Z,82.10
2022-12-13T17:46:44.354Z,90.20
2022-12-13T17:51:57.949Z,91.60
2022-12-13T17:57:00.441Z,94.80
2022-12-13T18:02:02.930Z,99.90
2022-12-13T18:07:05.315Z,93.90
2022-12-13T18:12:08.545Z,94.50
2022-12-13T18:17:10.959Z,97.90
2022-12-13T18:22:13.356Z,90.20
2022-12-13T18:27:15.713Z,79.00
2022-12-13T18:32:18.003Z,78.10
2022-12-13T18:37:20.362Z,92.30
2022-12-13T18:42:25.244Z,97.10
2022-12-13T18:47:28.233Z,99.40
2022-12-13T18:52:30.821Z,99.90
2022-12-13T18:57:33.240Z,99.90
2022-12-13T19:02:35.678Z,96.30
2022-12-13T19:07:43.217Z,99.90
2022-12-13T19:12:54.229Z,97.80
2022-12-13T19:17:58.739Z,98.00
2022-12-13T19:23:01.049Z,99.90
2022-12-13T19:28:03.499Z,98.80
2022-12-13T19:33:07.897Z,94.90
2022-12-13T19:38:10.477Z,99.90
2022-12-13T19:43:12.853Z,86.50
2022-12-13T19:48:16.020Z,99.20
2022-12-13T19:53:18.390Z,99.90
2022-12-13T19:58:20.897Z,99.90
2022-12-13T20:03:23.392Z,99.90
2022-12-13T20:08:26.549Z,99.90
2022-12-13T20:13:29.699Z,99.90
2022-12-13T20:18:33.620Z,99.90
2022-12-13T20:23:37.243Z,99.90
2022-12-13T20:28:40.127Z,99.90
2022-12-13T20:33:42.787Z,99.90
2022-12-13T20:38:45.202Z,99.90
2022-12-13T20:43:55.415Z,99.90
2022-12-13T20:49:00.564Z,99.90
2022-12-13T20:54:03.164Z,99.90
2022-12-13T20:59:07.994Z,99.90
2022-12-13T21:04:11.315Z,99.90
2022-12-13T21:09:13.762Z,99.90
2022-12-13T21:14:23.119Z,99.90
2022-12-13T21:19:39.013Z,99.90
2022-12-13T21:24:42.174Z,99.90
2022-12-13T21:29:44.518Z,99.90
2022-12-13T21:34:46.903Z,99.90
2022-12-13T21:39:49.221Z,99.90
2022-12-13T21:44:51.953Z,99.90
2022-12-13T21:49:54.324Z,99.90
2022-12-13T21:55:15.165Z,99.90
2022-12-13T22:00:19.146Z,99.90
2022-12-13T22:25:35.597Z,99.90
2022-12-13T22:30:38.714Z,99.90
2022-12-13T22:35:41.109Z,99.90
2022-12-13T22:45:46.396Z,99.90
2022-12-13T22:50:48.734Z,99.90
2022-12-13T22:55:51.846Z,99.90
2022-12-13T23:00:54.248Z,99.90
2022-12-13T23:05:56.957Z,99.90
2022-12-13T23:11:18.966Z,99.90
2022-12-13T23:16:23.409Z,99.90
2022-12-13T23:21:27.675Z,99.90
2022-12-13T23:26:31.978Z,99.90
2022-12-13T23:31:37.139Z,99.90
2022-12-13T23:36:39.667Z,99.90
2022-12-13T23:41:42.179Z,99.90
2022-12-13T23:46:48.390Z,99.90
2022-12-13T23:51:51.212Z,99.90
2022-12-13T23:56:54.220Z,99.90
